< < Back
Terminal Aerodrome Forecast


Current Version              Previous Versions:   1  2  3  4  5  6  7  8  9  

Terminal Aerodrome Forecast

406
FTUS44 KBMX 221100
TAFMGM
TAF
KMGM 221140Z 2212/2312 07004KT P6SM SCT050
     FM221400 08007KT P6SM BKN050
     FM221600 11010KT P6SM BKN025 BKN150
     FM230300 09008KT P6SM SHRA OVC020
     FM230900 10011KT 4SM TSRA BKN020 OVC035CB=



Latest METAR

455
SAUS80 KWBC 230000
MTRMGM
METAR KMGM 222353Z 11010KT 8SM -RA OVC030 17/12 A3018 RMK AO2 RAB46
SLP220 P0000 60000 T01670117 10222 20167 53001


USA.gov is the U.S. government's official web portal to all federal, state and local government web resources and services.